createdAt,value
2023-01-28T00:01:19.648Z,29.38
2023-01-28T00:04:09.980Z,30.85
2023-01-28T00:06:57.158Z,25.88
2023-01-28T00:09:46.500Z,35.13
2023-01-28T00:12:33.689Z,31.48
2023-01-28T00:15:21.156Z,28.70
2023-01-28T00:18:08.712Z,26.10
2023-01-28T00:21:01.916Z,26.95
2023-01-28T00:23:54.906Z,25.35
2023-01-28T00:26:42.477Z,28.85
2023-01-28T00:29:29.583Z,31.50
2023-01-28T00:32:19.188Z,29.58
2023-01-28T00:35:07.114Z,29.80
2023-01-28T00:37:54.570Z,28.90
2023-01-28T00:40:41.953Z,24.98
2023-01-28T00:43:29.458Z,29.65
2023-01-28T00:46:17.497Z,28.15
2023-01-28T00:49:04.611Z,30.05
2023-01-28T00:51:52.063Z,26.23
2023-01-28T00:54:39.434Z,26.13
2023-01-28T01:00:53.953Z,26.08
2023-01-28T01:03:41.493Z,26.25
2023-01-28T01:06:35.638Z,24.77
2023-01-28T01:09:22.946Z,27.40
2023-01-28T01:12:10.032Z,25.80
2023-01-28T01:14:57.724Z,22.08
2023-01-28T01:17:47.638Z,24.88
2023-01-28T01:20:41.434Z,23.67
2023-01-28T01:23:32.450Z,24.88
2023-01-28T01:26:19.946Z,24.00
2023-01-28T01:29:10.063Z,24.05
2023-01-28T01:32:00.439Z,21.88
2023-01-28T01:34:50.500Z,23.17
2023-01-28T01:37:37.778Z,23.55
2023-01-28T01:40:25.024Z,23.52
2023-01-28T01:43:17.698Z,22.52
2023-01-28T01:48:53.409Z,24.50
2023-01-28T01:51:42.636Z,24.48
2023-01-28T01:54:32.098Z,26.25
2023-01-28T01:57:25.670Z,22.55
2023-01-28T02:00:13.637Z,25.90
2023-01-28T02:03:01.632Z,23.50
2023-01-28T02:05:50.321Z,27.02
2023-01-28T02:08:37.567Z,23.13
2023-01-28T02:11:30.507Z,24.42
2023-01-28T02:14:30.570Z,26.23
2023-01-28T02:17:18.557Z,24.02
2023-01-28T02:20:10.699Z,25.15
2023-01-28T02:23:19.107Z,20.90
2023-01-28T02:26:09.728Z,22.95
2023-01-28T02:29:20.151Z,24.48
2023-01-28T02:32:36.671Z,24.40
2023-01-28T02:35:34.365Z,22.73
2023-01-28T02:38:37.814Z,26.90
2023-01-28T02:41:36.032Z,26.38
2023-01-28T02:44:25.343Z,26.70
2023-01-28T02:47:32.528Z,25.48
2023-01-28T02:50:20.599Z,26.95
2023-01-28T02:53:32.734Z,24.67
2023-01-28T02:56:44.258Z,27.20
2023-01-28T02:59:49.751Z,25.60
2023-01-28T03:02:50.944Z,26.00
2023-01-28T03:06:07.930Z,25.88
2023-01-28T03:09:17.978Z,21.63
2023-01-28T03:12:45.070Z,26.05
2023-01-28T03:15:59.541Z,26.45
2023-01-28T03:19:10.628Z,23.98
2023-01-28T03:22:20.147Z,23.45
2023-01-28T03:25:28.292Z,22.65
2023-01-28T03:28:38.863Z,23.67
2023-01-28T03:31:45.012Z,26.38
2023-01-28T03:34:53.412Z,20.90
2023-01-28T03:37:40.610Z,23.33
2023-01-28T03:40:28.772Z,24.67
2023-01-28T03:43:17.981Z,24.17
2023-01-28T03:46:06.488Z,26.13
2023-01-28T03:48:53.912Z,24.83
2023-01-28T03:51:41.348Z,25.17
2023-01-28T03:54:29.861Z,21.20
2023-01-28T03:57:18.461Z,23.88
2023-01-28T04:00:07.565Z,23.20
2023-01-28T04:02:54.947Z,27.58
2023-01-28T04:06:00.527Z,24.83
2023-01-28T04:08:53.384Z,25.52
2023-01-28T04:11:40.564Z,25.95
2023-01-28T04:14:28.179Z,21.60
2023-01-28T04:17:15.559Z,28.88
2023-01-28T04:20:03.861Z,26.30
2023-01-28T04:23:12.229Z,26.40
2023-01-28T04:25:59.808Z,30.08
2023-01-28T04:28:47.136Z,29.67
2023-01-28T04:31:36.630Z,30.48
2023-01-28T04:34:26.156Z,31.65
2023-01-28T04:37:13.272Z,31.05
2023-01-28T04:40:02.000Z,31.52
2023-01-28T04:42:56.946Z,32.45
2023-01-28T04:45:44.280Z,36.13
2023-01-28T04:48:32.050Z,34.63
2023-01-28T04:51:19.271Z,43.10
2023-01-28T04:54:06.501Z,40.25
2023-01-28T04:56:53.879Z,33.17
2023-01-28T04:59:41.045Z,39.38
2023-01-28T05:02:28.400Z,38.28
2023-01-28T05:05:15.962Z,34.08
2023-01-28T05:08:03.301Z,32.88
2023-01-28T05:10:50.528Z,32.00
2023-01-28T05:13:37.913Z,35.08
2023-01-28T05:16:25.194Z,40.55
2023-01-28T05:19:12.403Z,36.40
2023-01-28T05:21:59.609Z,34.17
2023-01-28T05:24:54.962Z,38.38
2023-01-28T05:27:42.056Z,39.15
2023-01-28T05:30:29.245Z,40.70
2023-01-28T05:33:16.722Z,35.03
2023-01-28T05:36:06.784Z,35.85
2023-01-28T05:38:56.690Z,31.92
2023-01-28T05:41:43.822Z,37.58
2023-01-28T05:44:35.777Z,37.88
2023-01-28T05:47:24.179Z,34.65
2023-01-28T05:50:15.928Z,33.42
2023-01-28T05:53:06.221Z,35.13
2023-01-28T05:55:53.939Z,37.13
2023-01-28T05:58:43.298Z,38.08
2023-01-28T06:01:30.777Z,35.58
2023-01-28T06:04:19.033Z,37.63
2023-01-28T06:07:07.420Z,34.05
2023-01-28T06:09:55.823Z,35.20
2023-01-28T06:12:42.925Z,37.13
2023-01-28T06:15:32.988Z,34.70
2023-01-28T06:18:20.427Z,31.65
2023-01-28T06:21:08.056Z,34.33
2023-01-28T06:23:55.518Z,34.13
2023-01-28T06:26:42.754Z,37.75
2023-01-28T06:29:29.945Z,35.70
2023-01-28T06:32:19.602Z,38.55
2023-01-28T06:35:09.153Z,35.55
2023-01-28T06:37:56.316Z,32.40
2023-01-28T06:40:43.424Z,38.00
2023-01-28T06:43:30.958Z,33.40
2023-01-28T06:46:27.028Z,33.92
2023-01-28T06:49:14.329Z,31.17
2023-01-28T06:52:01.859Z,30.23
2023-01-28T06:54:49.051Z,33.15
2023-01-28T06:57:39.970Z,34.63
2023-01-28T07:00:29.828Z,36.10
2023-01-28T07:03:20.669Z,36.53
2023-01-28T07:06:08.207Z,34.20
2023-01-28T07:08:55.435Z,36.97
2023-01-28T07:11:42.584Z,33.30
2023-01-28T07:14:29.798Z,31.48
2023-01-28T07:17:17.117Z,35.67
2023-01-28T07:20:05.941Z,30.75
2023-01-28T07:22:53.103Z,34.70
2023-01-28T07:25:40.312Z,34.50
2023-01-28T07:28:29.852Z,31.95
2023-01-28T07:31:17.234Z,34.83
2023-01-28T07:34:05.221Z,31.05
2023-01-28T07:36:52.404Z,30.05
2023-01-28T07:39:39.589Z,32.13
2023-01-28T07:42:28.004Z,32.95
2023-01-28T07:45:16.488Z,25.98
2023-01-28T07:48:06.142Z,30.90
2023-01-28T07:50:58.535Z,27.95
2023-01-28T07:53:45.688Z,27.90
2023-01-28T07:56:35.819Z,29.88
2023-01-28T07:59:23.050Z,27.27
2023-01-28T08:02:13.249Z,28.45
2023-01-28T08:05:01.962Z,31.50
2023-01-28T08:07:49.777Z,35.20
2023-01-28T08:10:37.530Z,30.27
2023-01-28T08:13:25.836Z,29.25
2023-01-28T08:16:14.278Z,31.25
2023-01-28T08:19:04.149Z,30.05
2023-01-28T08:22:44.929Z,31.38
2023-01-28T08:25:33.509Z,29.25
2023-01-28T08:28:22.917Z,26.08
2023-01-28T08:31:11.339Z,30.63
2023-01-28T08:34:02.310Z,31.00
2023-01-28T08:36:49.628Z,29.50
2023-01-28T08:39:37.173Z,30.88
2023-01-28T08:42:24.476Z,33.80
2023-01-28T08:45:15.180Z,31.63
2023-01-28T08:48:05.382Z,29.75
2023-01-28T08:50:52.557Z,28.88
2023-01-28T08:53:55.362Z,34.13
2023-01-28T08:59:32.979Z,31.40
2023-01-28T09:02:31.053Z,32.33
2023-01-28T09:05:20.480Z,29.08
2023-01-28T09:08:11.059Z,31.15
2023-01-28T09:10:59.453Z,35.33
2023-01-28T09:13:46.850Z,28.58
2023-01-28T09:16:36.669Z,30.60
2023-01-28T09:19:26.108Z,27.85
2023-01-28T09:26:21.739Z,30.70
2023-01-28T09:37:25.072Z,31.63
2023-01-28T09:40:31.515Z,25.88
2023-01-28T09:43:40.785Z,23.35
2023-01-28T09:46:37.321Z,23.52
2023-01-28T09:49:59.589Z,23.60
2023-01-28T09:52:47.155Z,24.20
2023-01-28T09:55:47.252Z,23.48
2023-01-28T09:58:34.454Z,22.90
2023-01-28T10:01:40.535Z,27.42
2023-01-28T10:04:32.765Z,22.88
2023-01-28T10:07:33.344Z,24.38
2023-01-28T10:10:28.743Z,23.35
2023-01-28T10:13:51.855Z,24.58
2023-01-28T10:16:50.635Z,21.48
2023-01-28T10:19:47.335Z,21.15
2023-01-28T10:23:15.717Z,23.83
2023-01-28T10:26:12.465Z,25.65
2023-01-28T10:29:05.441Z,23.60
2023-01-28T10:32:02.403Z,23.77
2023-01-28T10:34:51.902Z,28.00
2023-01-28T10:37:41.553Z,24.77
2023-01-28T10:40:36.295Z,23.88
2023-01-28T10:43:26.038Z,26.73
2023-01-28T10:46:17.599Z,24.33
2023-01-28T10:49:14.102Z,23.95
2023-01-28T10:52:11.480Z,25.20
2023-01-28T10:55:05.201Z,26.98
2023-01-28T10:57:56.289Z,26.05
2023-01-28T11:00:43.845Z,30.48
2023-01-28T11:03:42.814Z,29.02
2023-01-28T11:06:32.957Z,28.23
2023-01-28T11:10:23.650Z,30.67
2023-01-28T11:12:59.685Z,33.03
2023-01-28T11:15:51.883Z,28.90
2023-01-28T11:18:46.911Z,25.58
2023-01-28T11:21:36.138Z,25.98
2023-01-28T11:24:29.255Z,30.00
2023-01-28T11:27:18.878Z,28.48
2023-01-28T11:30:48.860Z,25.65
2023-01-28T11:34:16.830Z,27.27
2023-01-28T11:37:51.591Z,25.88
2023-01-28T11:40:39.422Z,24.63
2023-01-28T11:43:32.191Z,24.38
2023-01-28T11:49:35.987Z,27.33
2023-01-28T11:52:55.224Z,32.83
2023-01-28T11:56:01.566Z,30.30
2023-01-28T11:59:17.445Z,31.67
2023-01-28T12:02:35.260Z,33.80
2023-01-28T12:05:30.484Z,37.10
2023-01-28T12:08:26.392Z,40.50
2023-01-28T12:11:47.403Z,39.58
2023-01-28T12:15:03.249Z,35.97
2023-01-28T12:18:18.618Z,40.42
2023-01-28T12:21:10.805Z,44.13
2023-01-28T12:24:11.237Z,47.80
2023-01-28T12:27:17.537Z,43.45
2023-01-28T12:30:29.821Z,42.80
2023-01-28T12:38:23.430Z,45.25
2023-01-28T12:56:48.683Z,39.45
2023-01-28T13:00:19.892Z,40.63
2023-01-28T13:03:29.169Z,34.22
2023-01-28T13:06:47.695Z,39.88
2023-01-28T13:13:45.041Z,37.22
2023-01-28T13:16:37.784Z,33.40
2023-01-28T13:19:37.867Z,35.97
2023-01-28T13:22:36.788Z,37.67
2023-01-28T13:25:25.575Z,38.00
2023-01-28T13:28:32.969Z,45.35
2023-01-28T13:31:24.469Z,40.15
2023-01-28T13:34:33.735Z,40.58
2023-01-28T13:37:44.641Z,40.85
2023-01-28T13:40:34.106Z,37.08
2023-01-28T13:43:41.829Z,74.50
2023-01-28T13:46:31.492Z,37.83
2023-01-28T13:49:37.754Z,45.85
2023-01-28T13:52:42.925Z,40.35
2023-01-28T13:55:45.803Z,40.70
2023-01-28T13:58:51.741Z,36.28
2023-01-28T14:02:00.138Z,35.65
2023-01-28T14:05:06.151Z,30.45
2023-01-28T14:08:31.112Z,38.00
2023-01-28T14:11:55.665Z,31.48
2023-01-28T14:15:05.449Z,30.98
2023-01-28T14:17:55.332Z,29.77
2023-01-28T14:20:45.667Z,24.25
2023-01-28T14:23:35.326Z,24.70
2023-01-28T14:26:47.500Z,23.40
2023-01-28T14:29:56.593Z,15.68
2023-01-28T14:32:50.852Z,16.65
2023-01-28T14:36:10.282Z,19.13
2023-01-28T14:42:47.301Z,16.08
2023-01-28T14:45:49.191Z,17.55
2023-01-28T14:48:38.553Z,17.27
2023-01-28T14:52:21.537Z,19.63
2023-01-28T14:55:36.756Z,19.35
2023-01-28T14:58:33.455Z,19.48
2023-01-28T15:08:49.399Z,20.25
2023-01-28T15:11:48.820Z,22.05
2023-01-28T15:18:16.396Z,26.70
2023-01-28T15:24:23.015Z,31.10
2023-01-28T15:31:31.160Z,29.63
2023-01-28T15:38:20.437Z,26.30
2023-01-28T15:41:07.678Z,28.90
2023-01-28T15:43:54.925Z,28.17
2023-01-28T15:46:42.207Z,34.92
2023-01-28T15:49:39.420Z,32.33
2023-01-28T15:52:36.781Z,34.95
2023-01-28T16:21:41.980Z,24.77
2023-01-28T16:24:36.647Z,23.55
2023-01-28T16:27:27.072Z,22.20
2023-01-28T16:30:17.192Z,21.27
2023-01-28T16:33:15.940Z,24.85
2023-01-28T16:36:08.164Z,26.02
2023-01-28T16:42:07.132Z,23.52
2023-01-28T16:44:54.216Z,23.50
2023-01-28T16:47:41.838Z,20.85
2023-01-28T16:50:31.344Z,24.85
2023-01-28T16:53:22.992Z,23.85
2023-01-28T16:56:43.960Z,22.75
2023-01-28T16:59:38.651Z,24.17
2023-01-28T17:02:26.186Z,26.48
2023-01-28T17:05:18.583Z,22.52
2023-01-28T17:10:55.033Z,24.60
2023-01-28T17:13:51.053Z,23.75
2023-01-28T17:16:38.796Z,24.33
2023-01-28T17:19:28.716Z,23.08
2023-01-28T17:22:20.369Z,22.00
2023-01-28T17:25:12.641Z,27.67
2023-01-28T17:28:00.347Z,25.17
2023-01-28T17:30:53.408Z,24.13
2023-01-28T17:33:41.756Z,23.42
2023-01-28T17:36:33.775Z,24.35
2023-01-28T17:39:40.015Z,20.27
2023-01-28T17:42:28.475Z,23.08
2023-01-28T17:45:17.897Z,22.48
2023-01-28T17:48:06.143Z,23.05
2023-01-28T17:50:57.926Z,29.23
2023-01-28T17:53:54.410Z,22.13
2023-01-28T17:56:42.066Z,23.13
2023-01-28T17:59:36.749Z,23.30
2023-01-28T18:02:24.104Z,19.70
2023-01-28T18:05:23.852Z,21.30
2023-01-28T18:08:13.437Z,22.38
2023-01-28T18:11:03.214Z,19.70
2023-01-28T18:13:50.425Z,21.80
2023-01-28T18:16:37.878Z,22.23
2023-01-28T18:19:28.821Z,21.17
2023-01-28T18:22:18.212Z,22.65
2023-01-28T18:25:06.007Z,20.38
2023-01-28T18:27:53.751Z,27.17
2023-01-28T18:30:40.992Z,20.42
2023-01-28T18:33:30.695Z,23.13
2023-01-28T18:36:20.375Z,30.02
2023-01-28T18:39:10.528Z,26.38
2023-01-28T18:41:59.459Z,23.13
2023-01-28T18:44:48.711Z,32.67
2023-01-28T18:47:37.344Z,25.48
2023-01-28T18:50:24.532Z,23.52
2023-01-28T18:53:11.724Z,22.10
2023-01-28T18:56:02.733Z,23.80
2023-01-28T18:58:54.740Z,22.70
2023-01-28T19:01:43.407Z,24.65
2023-01-28T19:04:30.994Z,21.80
2023-01-28T19:07:25.591Z,27.92
2023-01-28T19:10:14.003Z,25.65
2023-01-28T19:13:03.937Z,22.67
2023-01-28T19:15:51.911Z,24.55
2023-01-28T19:18:39.904Z,23.38
2023-01-28T19:21:29.719Z,21.33
2023-01-28T19:24:17.591Z,24.17
2023-01-28T19:27:08.812Z,20.77
2023-01-28T19:29:56.341Z,21.65
2023-01-28T19:32:43.846Z,20.38
2023-01-28T19:35:39.313Z,21.45
2023-01-28T19:38:28.186Z,20.92
2023-01-28T19:41:17.448Z,24.05
2023-01-28T19:44:06.100Z,22.70
2023-01-28T19:46:53.850Z,21.85
2023-01-28T19:49:41.382Z,26.33
2023-01-28T19:52:30.948Z,24.75
2023-01-28T19:55:18.533Z,24.73
2023-01-28T19:58:05.878Z,21.80
2023-01-28T20:00:53.113Z,22.90
2023-01-28T20:03:43.119Z,26.20
2023-01-28T20:06:32.522Z,23.05
2023-01-28T20:09:20.747Z,24.92
2023-01-28T20:12:12.729Z,21.35
2023-01-28T20:15:02.126Z,25.38
2023-01-28T20:17:49.795Z,27.17
2023-01-28T20:20:37.248Z,26.42
2023-01-28T20:23:24.895Z,25.95
2023-01-28T20:26:12.172Z,24.48
2023-01-28T20:29:10.120Z,23.08
2023-01-28T20:32:13.735Z,25.27
2023-01-28T20:35:05.215Z,27.90
2023-01-28T20:37:52.532Z,25.98
2023-01-28T20:40:42.404Z,26.42
2023-01-28T20:43:29.881Z,26.75
2023-01-28T20:46:20.045Z,33.80
2023-01-28T20:49:07.336Z,30.88
2023-01-28T20:51:54.851Z,28.13
2023-01-28T20:54:42.476Z,27.02
2023-01-28T20:57:29.744Z,29.75
2023-01-28T21:00:17.557Z,29.58
2023-01-28T21:03:07.044Z,29.23
2023-01-28T21:05:54.632Z,28.83
2023-01-28T21:08:42.116Z,29.48
2023-01-28T21:11:32.116Z,28.95
2023-01-28T21:14:19.787Z,30.02
2023-01-28T21:17:08.589Z,31.63
2023-01-28T21:19:55.950Z,28.45
2023-01-28T21:22:43.569Z,28.15
2023-01-28T21:25:32.830Z,28.63
2023-01-28T21:28:20.718Z,27.90
2023-01-28T21:31:16.001Z,35.67
2023-01-28T21:34:03.721Z,28.50
2023-01-28T21:36:51.151Z,29.30
2023-01-28T21:39:38.597Z,27.73
2023-01-28T21:42:26.235Z,29.42
2023-01-28T21:45:13.712Z,28.50
2023-01-28T21:48:01.779Z,26.65
2023-01-28T21:51:12.061Z,29.00
2023-01-28T21:53:59.373Z,28.33
2023-01-28T21:56:49.175Z,30.52
2023-01-28T21:59:38.329Z,32.97
2023-01-28T22:02:37.159Z,29.13
2023-01-28T22:05:24.746Z,31.25
2023-01-28T22:08:12.071Z,29.48
2023-01-28T22:11:08.138Z,31.98
2023-01-28T22:13:58.275Z,31.88
2023-01-28T22:16:46.052Z,31.77
2023-01-28T22:19:33.610Z,29.15
2023-01-28T22:22:20.777Z,31.50
2023-01-28T22:25:08.442Z,30.77
2023-01-28T22:27:58.679Z,28.65
2023-01-28T22:30:46.014Z,29.38
2023-01-28T22:33:34.021Z,29.58
2023-01-28T22:36:23.889Z,30.40
2023-01-28T22:39:14.643Z,29.30
2023-01-28T22:42:02.388Z,31.95
2023-01-28T22:44:50.083Z,29.02
2023-01-28T22:47:39.767Z,31.33
2023-01-28T22:50:27.251Z,32.45
2023-01-28T22:53:17.287Z,29.92
2023-01-28T22:56:04.876Z,30.45
2023-01-28T22:58:59.536Z,34.92
2023-01-28T23:01:46.910Z,29.38
2023-01-28T23:04:34.175Z,30.73
2023-01-28T23:07:21.497Z,29.58
2023-01-28T23:10:09.728Z,30.75
2023-01-28T23:13:00.026Z,33.33
2023-01-28T23:16:07.405Z,29.00
2023-01-28T23:19:13.283Z,29.10
2023-01-28T23:22:19.892Z,29.02
2023-01-28T23:25:09.436Z,27.95
2023-01-28T23:27:58.050Z,31.90
2023-01-28T23:30:45.297Z,25.10
2023-01-28T23:33:32.811Z,26.15
2023-01-28T23:36:20.245Z,26.58
2023-01-28T23:39:08.700Z,27.00
2023-01-28T23:41:55.982Z,23.27
2023-01-28T23:44:45.603Z,27.23
2023-01-28T23:47:33.016Z,29.42
2023-01-28T23:50:23.032Z,28.48
2023-01-28T23:53:13.316Z,31.63
2023-01-28T23:56:01.088Z,23.98
2023-01-28T23:58:48.677Z,26.42
